createdAt,value
2023-02-22T00:00:43.181Z,70.13
2023-02-22T00:03:32.565Z,62.25
2023-02-22T00:06:05.083Z,65.10
2023-02-22T00:08:37.095Z,62.55
2023-02-22T00:11:11.314Z,60.65
2023-02-22T00:13:39.007Z,59.45
2023-02-22T00:16:06.967Z,66.38
2023-02-22T00:18:34.177Z,57.93
2023-02-22T00:21:01.352Z,65.30
2023-02-22T00:23:30.779Z,62.95
2023-02-22T00:25:59.885Z,64.60
2023-02-22T00:28:27.619Z,62.45
2023-02-22T00:30:55.168Z,58.17
2023-02-22T00:33:22.771Z,59.53
2023-02-22T00:35:53.632Z,60.83
2023-02-22T00:38:20.612Z,60.35
2023-02-22T00:40:47.465Z,58.60
2023-02-22T00:43:14.744Z,58.13
2023-02-22T00:45:42.217Z,60.38
2023-02-22T00:48:10.009Z,64.78
2023-02-22T00:50:37.333Z,67.72
2023-02-22T00:53:07.783Z,60.75
2023-02-22T00:55:36.637Z,65.77
2023-02-22T00:58:05.238Z,63.75
2023-02-22T01:00:36.549Z,63.58
2023-02-22T01:03:05.093Z,62.88
2023-02-22T01:05:33.255Z,63.42
2023-02-22T01:08:02.414Z,62.53
2023-02-22T01:10:31.496Z,61.55
2023-02-22T01:13:00.084Z,58.97
2023-02-22T01:15:30.741Z,59.97
2023-02-22T01:17:59.641Z,61.25
2023-02-22T01:20:27.992Z,58.07
2023-02-22T01:22:56.595Z,55.00
2023-02-22T01:25:26.010Z,61.95
2023-02-22T01:28:13.920Z,60.42
2023-02-22T01:30:40.931Z,63.92
2023-02-22T01:33:08.693Z,59.50
2023-02-22T01:35:40.850Z,62.53
2023-02-22T01:38:10.538Z,64.40
2023-02-22T01:40:42.431Z,56.83
2023-02-22T01:43:25.582Z,62.10
2023-02-22T01:46:02.490Z,64.50
2023-02-22T01:48:38.977Z,53.70
2023-02-22T01:51:10.883Z,59.78
2023-02-22T01:53:46.948Z,57.95
2023-02-22T01:56:15.303Z,52.25
2023-02-22T01:58:45.805Z,53.73
2023-02-22T02:01:14.374Z,55.33
2023-02-22T02:03:42.651Z,59.30
2023-02-22T02:06:14.214Z,56.88
2023-02-22T02:09:10.926Z,57.25
2023-02-22T02:11:40.598Z,55.90
2023-02-22T02:14:10.062Z,57.97
2023-02-22T02:16:46.062Z,63.10
2023-02-22T02:19:31.764Z,62.45
2023-02-22T02:22:14.342Z,52.75
2023-02-22T02:25:05.787Z,51.20
2023-02-22T02:28:05.939Z,58.88
2023-02-22T02:30:51.569Z,59.88
2023-02-22T02:33:35.102Z,57.58
2023-02-22T02:36:28.539Z,61.53
2023-02-22T02:39:01.208Z,53.00
2023-02-22T02:41:35.479Z,59.35
2023-02-22T02:44:34.646Z,58.30
2023-02-22T02:47:09.162Z,57.35
2023-02-22T02:49:54.973Z,62.85
2023-02-22T02:52:25.420Z,60.57
2023-02-22T02:54:53.946Z,62.45
2023-02-22T02:57:20.945Z,68.05
2023-02-22T02:59:47.968Z,62.25
2023-02-22T03:02:19.117Z,60.05
2023-02-22T03:05:27.920Z,65.77
2023-02-22T03:08:03.769Z,65.78
2023-02-22T03:10:55.586Z,67.28
2023-02-22T03:13:49.573Z,66.68
2023-02-22T03:16:21.281Z,67.28
2023-02-22T03:19:19.631Z,67.57
2023-02-22T03:22:09.818Z,66.03
2023-02-22T03:24:53.979Z,69.93
2023-02-22T03:27:29.043Z,73.82
2023-02-22T03:30:03.570Z,67.10
2023-02-22T03:32:36.870Z,77.87
2023-02-22T03:35:13.019Z,69.50
2023-02-22T03:37:44.577Z,76.45
2023-02-22T03:40:17.967Z,75.93
2023-02-22T03:42:52.054Z,77.57
2023-02-22T03:45:24.770Z,79.93
2023-02-22T03:48:03.027Z,74.80
2023-02-22T03:50:35.701Z,76.72
2023-02-22T03:53:03.814Z,75.65
2023-02-22T03:55:33.725Z,75.18
2023-02-22T03:58:05.955Z,75.47
2023-02-22T04:00:35.041Z,73.85
2023-02-22T04:03:03.232Z,76.93
2023-02-22T04:05:30.331Z,88.20
2023-02-22T04:07:58.795Z,90.63
2023-02-22T04:10:26.897Z,79.07
2023-02-22T04:12:54.220Z,89.68
2023-02-22T04:15:25.922Z,74.50
2023-02-22T04:17:58.603Z,78.80
2023-02-22T04:20:25.793Z,87.00
2023-02-22T04:22:58.409Z,93.27
2023-02-22T04:25:25.348Z,81.97
2023-02-22T04:27:52.570Z,114.00
2023-02-22T04:30:24.528Z,94.05
2023-02-22T04:32:51.677Z,117.15
2023-02-22T04:35:21.295Z,90.97
2023-02-22T04:37:48.235Z,93.63
2023-02-22T04:40:17.269Z,102.72
2023-02-22T04:42:44.620Z,112.63
2023-02-22T04:45:11.708Z,116.00
2023-02-22T04:47:39.341Z,98.70
2023-02-22T04:50:08.449Z,91.07
2023-02-22T04:52:35.735Z,96.47
2023-02-22T04:55:02.952Z,123.97
2023-02-22T04:57:29.989Z,131.40
2023-02-22T04:59:57.094Z,111.20
2023-02-22T05:02:25.786Z,248.60
2023-02-22T05:04:52.831Z,241.88
2023-02-22T05:07:19.823Z,280.50
2023-02-22T05:09:46.732Z,195.55
2023-02-22T05:12:13.593Z,158.33
2023-02-22T05:14:41.636Z,191.38
2023-02-22T05:17:08.762Z,203.13
2023-02-22T05:19:35.810Z,179.52
2023-02-22T05:22:02.833Z,234.80
2023-02-22T05:24:29.720Z,241.53
2023-02-22T05:26:56.615Z,199.10
2023-02-22T05:29:23.671Z,108.32
2023-02-22T05:31:50.966Z,129.38
2023-02-22T05:34:18.103Z,255.45
2023-02-22T05:36:46.502Z,175.77
2023-02-22T05:39:13.451Z,194.90
2023-02-22T05:41:40.453Z,154.10
2023-02-22T05:44:07.561Z,214.70
2023-02-22T05:46:34.527Z,270.55
2023-02-22T05:49:01.617Z,224.63
2023-02-22T05:51:28.494Z,99.88
2023-02-22T05:53:55.389Z,116.50
2023-02-22T05:56:28.174Z,214.07
2023-02-22T05:58:55.257Z,136.93
2023-02-22T06:01:22.259Z,142.53
2023-02-22T06:03:50.579Z,207.52
2023-02-22T06:06:18.693Z,164.52
2023-02-22T06:08:47.408Z,104.10
2023-02-22T06:11:14.280Z,178.93
2023-02-22T06:13:41.340Z,257.13
2023-02-22T06:16:08.484Z,252.30
2023-02-22T06:18:35.401Z,197.57
2023-02-22T06:21:03.328Z,177.30
2023-02-22T06:23:30.271Z,206.82
2023-02-22T06:25:57.352Z,240.17
2023-02-22T06:28:24.112Z,109.05
2023-02-22T06:30:51.060Z,127.35
2023-02-22T06:33:18.065Z,198.43
2023-02-22T06:35:45.443Z,134.30
2023-02-22T06:38:12.478Z,207.33
2023-02-22T06:40:39.379Z,238.25
2023-02-22T06:43:06.415Z,232.57
2023-02-22T06:45:33.342Z,267.70
2023-02-22T06:48:00.195Z,315.65
2023-02-22T06:50:29.658Z,178.70
2023-02-22T06:53:03.198Z,154.10
2023-02-22T06:55:32.847Z,154.65
2023-02-22T06:58:00.578Z,132.77
2023-02-22T07:00:29.465Z,84.07
2023-02-22T07:02:56.973Z,159.33
2023-02-22T07:05:25.966Z,137.38
2023-02-22T07:07:56.068Z,157.50
2023-02-22T07:10:27.068Z,148.48
2023-02-22T07:12:54.034Z,180.35
2023-02-22T07:15:25.741Z,148.53
2023-02-22T07:17:52.974Z,108.35
2023-02-22T07:20:21.052Z,84.05
2023-02-22T07:22:49.354Z,84.45
2023-02-22T07:25:16.464Z,85.30
2023-02-22T07:27:43.612Z,105.90
2023-02-22T07:30:25.636Z,82.50
2023-02-22T07:32:54.703Z,85.00
2023-02-22T07:35:30.157Z,82.95
2023-02-22T07:37:59.788Z,79.32
2023-02-22T07:40:27.949Z,98.97
2023-02-22T07:43:28.472Z,78.60
2023-02-22T07:45:57.146Z,82.15
2023-02-22T07:48:26.507Z,76.45
2023-02-22T07:50:53.717Z,82.25
2023-02-22T07:53:30.180Z,59.90
2023-02-22T07:56:02.587Z,58.67
2023-02-22T07:58:31.368Z,53.03
2023-02-22T08:01:02.031Z,59.70
2023-02-22T08:03:38.026Z,61.00
2023-02-22T08:06:07.757Z,60.67
2023-02-22T08:08:34.852Z,54.95
2023-02-22T08:11:02.107Z,49.38
2023-02-22T08:13:29.364Z,45.30
2023-02-22T08:15:56.593Z,47.58
2023-02-22T08:18:25.293Z,46.50
2023-02-22T08:20:56.671Z,44.15
2023-02-22T08:23:26.868Z,50.00
2023-02-22T08:25:54.402Z,49.63
2023-02-22T08:28:23.534Z,53.60
2023-02-22T08:30:51.345Z,51.90
2023-02-22T08:33:21.353Z,46.88
2023-02-22T08:35:49.652Z,55.22
2023-02-22T08:38:20.720Z,50.88
2023-02-22T08:40:48.086Z,50.00
2023-02-22T08:43:14.950Z,45.43
2023-02-22T08:45:42.250Z,49.95
2023-02-22T08:48:09.538Z,49.05
2023-02-22T08:50:36.383Z,48.53
2023-02-22T08:53:05.666Z,51.40
2023-02-22T08:55:37.817Z,53.03
2023-02-22T08:58:09.305Z,52.90
2023-02-22T09:00:38.928Z,51.08
2023-02-22T09:03:08.235Z,48.22
2023-02-22T09:05:35.120Z,45.80
2023-02-22T09:08:02.791Z,52.47
2023-02-22T09:10:32.776Z,47.22
2023-02-22T09:13:01.209Z,47.92
2023-02-22T09:15:28.780Z,51.28
2023-02-22T09:17:55.855Z,47.05
2023-02-22T09:20:24.551Z,47.17
2023-02-22T09:22:52.381Z,45.05
2023-02-22T09:25:23.051Z,50.40
2023-02-22T09:27:53.628Z,52.28
2023-02-22T09:30:25.481Z,49.20
2023-02-22T09:32:58.363Z,47.53
2023-02-22T09:35:27.551Z,42.25
2023-02-22T09:38:00.104Z,43.00
2023-02-22T09:40:30.394Z,45.55
2023-02-22T09:43:04.269Z,47.13
2023-02-22T09:45:39.000Z,49.23
2023-02-22T09:48:21.262Z,44.47
2023-02-22T09:50:51.193Z,48.45
2023-02-22T09:53:31.581Z,45.33
2023-02-22T09:56:07.695Z,45.95
2023-02-22T09:58:42.878Z,42.00
2023-02-22T10:01:19.000Z,48.25
2023-02-22T10:04:00.954Z,48.30
2023-02-22T10:06:30.001Z,44.75
2023-02-22T10:09:01.025Z,48.95
2023-02-22T10:11:37.706Z,44.77
2023-02-22T10:14:22.330Z,44.47
2023-02-22T10:16:49.100Z,47.83
2023-02-22T10:19:34.893Z,46.70
2023-02-22T10:22:23.784Z,50.47
2023-02-22T10:25:09.766Z,42.87
2023-02-22T10:28:03.693Z,44.30
2023-02-22T10:30:38.335Z,52.15
2023-02-22T10:33:23.544Z,50.08
2023-02-22T10:35:52.704Z,43.97
2023-02-22T10:38:33.252Z,49.43
2023-02-22T10:41:19.457Z,48.13
2023-02-22T10:43:48.574Z,49.90
2023-02-22T10:46:21.280Z,47.65
2023-02-22T10:48:52.836Z,49.40
2023-02-22T10:51:19.946Z,55.87
2023-02-22T10:53:58.974Z,45.05
2023-02-22T10:56:27.608Z,48.83
2023-02-22T10:59:04.511Z,46.30
2023-02-22T11:01:31.485Z,46.88
2023-02-22T11:04:15.986Z,53.43
2023-02-22T11:06:46.431Z,45.28
2023-02-22T11:09:15.236Z,53.25
2023-02-22T11:11:47.720Z,47.40
2023-02-22T11:14:30.379Z,50.17
2023-02-22T11:16:59.385Z,46.20
2023-02-22T11:19:31.597Z,47.13
2023-02-22T11:22:23.357Z,48.55
2023-02-22T11:24:57.833Z,42.97
2023-02-22T11:27:32.630Z,48.78
2023-02-22T11:30:29.569Z,48.03
2023-02-22T11:33:13.690Z,57.83
2023-02-22T11:36:00.328Z,51.15
2023-02-22T11:38:29.540Z,49.75
2023-02-22T11:41:16.417Z,43.97
2023-02-22T11:43:45.817Z,45.53
2023-02-22T11:46:29.652Z,40.22
2023-02-22T11:49:02.300Z,46.20
2023-02-22T11:51:46.619Z,45.30
2023-02-22T11:54:25.467Z,42.92
2023-02-22T11:56:57.779Z,39.43
2023-02-22T11:59:24.582Z,39.67
2023-02-22T12:01:56.617Z,42.63
2023-02-22T12:04:46.261Z,34.45
2023-02-22T12:07:22.091Z,37.85
2023-02-22T12:10:07.467Z,40.40
2023-02-22T12:12:36.992Z,35.78
2023-02-22T12:15:24.668Z,38.58
2023-02-22T12:18:01.983Z,34.85
2023-02-22T12:20:32.489Z,33.63
2023-02-22T12:23:46.552Z,32.50
2023-02-22T12:26:25.650Z,36.67
2023-02-22T12:29:26.947Z,34.10
2023-02-22T12:32:24.193Z,35.60
2023-02-22T12:34:57.449Z,32.70
2023-02-22T12:37:34.948Z,34.50
2023-02-22T12:40:29.699Z,36.15
2023-02-22T12:42:56.484Z,35.50
2023-02-22T12:45:48.530Z,33.70
2023-02-22T12:48:30.454Z,32.35
2023-02-22T12:51:13.915Z,33.50
2023-02-22T12:53:46.721Z,31.30
2023-02-22T12:56:41.970Z,32.65
2023-02-22T12:59:31.219Z,32.55
2023-02-22T13:02:11.764Z,34.13
2023-02-22T13:04:38.693Z,31.93
2023-02-22T13:07:30.624Z,32.95
2023-02-22T13:10:08.283Z,33.40
2023-02-22T13:12:58.464Z,33.55
2023-02-22T13:15:32.965Z,32.45
2023-02-22T13:18:05.684Z,36.67
2023-02-22T13:20:44.816Z,31.60
2023-02-22T13:23:26.898Z,36.63
2023-02-22T13:26:11.678Z,32.75
2023-02-22T13:28:51.478Z,33.25
2023-02-22T13:31:29.767Z,34.20
2023-02-22T13:34:22.039Z,37.13
2023-02-22T13:36:58.308Z,32.97
2023-02-22T13:40:22.191Z,31.42
2023-02-22T13:43:30.830Z,32.25
2023-02-22T13:46:06.562Z,33.63
2023-02-22T13:49:02.778Z,30.40
2023-02-22T13:51:35.447Z,28.15
2023-02-22T13:54:47.860Z,29.20
2023-02-22T13:57:25.177Z,30.80
2023-02-22T14:00:20.994Z,29.47
2023-02-22T14:03:12.794Z,34.45
2023-02-22T14:05:42.727Z,29.25
2023-02-22T14:08:18.813Z,31.27
2023-02-22T14:10:51.536Z,33.58
2023-02-22T14:13:22.472Z,30.30
2023-02-22T14:16:05.250Z,30.73
2023-02-22T14:18:42.336Z,35.75
2023-02-22T14:21:16.784Z,30.08
2023-02-22T14:23:44.640Z,32.80
2023-02-22T14:26:11.772Z,28.50
2023-02-22T14:28:41.463Z,34.03
2023-02-22T14:31:29.300Z,32.88
2023-02-22T14:34:16.263Z,31.42
2023-02-22T14:37:08.827Z,31.65
2023-02-22T14:40:04.119Z,30.37
2023-02-22T14:42:35.900Z,36.25
2023-02-22T14:45:14.367Z,32.65
2023-02-22T14:48:14.300Z,31.73
2023-02-22T14:50:41.085Z,35.30
2023-02-22T14:53:20.620Z,33.30
2023-02-22T14:55:54.228Z,38.47
2023-02-22T14:58:30.949Z,31.85
2023-02-22T15:00:58.208Z,35.65
2023-02-22T15:03:38.065Z,35.15
2023-02-22T15:06:20.932Z,35.50
2023-02-22T15:09:04.150Z,35.85
2023-02-22T15:11:32.430Z,37.88
2023-02-22T15:14:01.166Z,38.28
2023-02-22T15:16:32.064Z,39.63
2023-02-22T15:19:03.630Z,37.07
2023-02-22T15:21:34.766Z,40.13
2023-02-22T15:24:08.124Z,35.80
2023-02-22T15:26:59.010Z,37.55
2023-02-22T15:29:39.013Z,42.20
2023-02-22T15:32:20.826Z,41.70
2023-02-22T15:34:47.720Z,40.90
2023-02-22T15:37:25.545Z,46.30
2023-02-22T15:39:59.440Z,36.22
2023-02-22T15:42:30.518Z,48.53
2023-02-22T15:44:58.174Z,47.10
2023-02-22T15:47:32.216Z,42.42
2023-02-22T15:50:25.718Z,44.08
2023-02-22T15:52:53.627Z,37.80
2023-02-22T15:55:32.638Z,41.65
2023-02-22T15:58:16.491Z,55.60
2023-02-22T16:00:45.990Z,42.30
2023-02-22T16:03:16.367Z,35.55
2023-02-22T16:06:00.383Z,39.58
2023-02-22T16:08:55.009Z,47.15
2023-02-22T16:11:31.255Z,42.77
2023-02-22T16:14:01.961Z,38.22
2023-02-22T16:16:34.646Z,43.75
2023-02-22T16:19:57.120Z,55.28
2023-02-22T16:22:36.370Z,40.70
2023-02-22T16:25:35.767Z,44.67
2023-02-22T16:28:27.131Z,54.67
2023-02-22T16:30:58.233Z,54.92
2023-02-22T16:33:29.704Z,51.47
2023-02-22T16:35:57.136Z,44.83
2023-02-22T16:38:27.535Z,63.03
2023-02-22T16:40:58.623Z,59.40
2023-02-22T16:43:29.848Z,74.18
2023-02-22T16:45:57.111Z,56.22
2023-02-22T16:48:26.353Z,65.78
2023-02-22T16:50:56.845Z,61.30
2023-02-22T16:53:26.266Z,64.78
2023-02-22T16:56:00.425Z,69.13
2023-02-22T16:58:28.154Z,51.30
2023-02-22T17:00:57.337Z,66.53
2023-02-22T17:03:26.167Z,64.87
2023-02-22T17:05:53.673Z,73.80
2023-02-22T17:08:22.901Z,67.88
2023-02-22T17:10:51.712Z,66.28
2023-02-22T17:13:26.833Z,75.15
2023-02-22T17:15:57.383Z,77.17
2023-02-22T17:18:28.547Z,70.18
2023-02-22T17:20:55.657Z,75.07
2023-02-22T17:23:27.841Z,79.75
2023-02-22T17:25:59.141Z,83.65
2023-02-22T17:28:27.309Z,84.53
2023-02-22T17:31:00.700Z,82.47
2023-02-22T17:33:31.017Z,91.40
2023-02-22T17:35:59.458Z,82.53
2023-02-22T17:38:29.173Z,83.20
2023-02-22T17:40:57.002Z,83.57
2023-02-22T17:43:31.133Z,94.32
2023-02-22T17:45:58.344Z,99.15
2023-02-22T17:48:26.136Z,94.70
2023-02-22T17:50:55.980Z,100.38
2023-02-22T17:53:25.585Z,88.90
2023-02-22T17:55:52.741Z,81.40
2023-02-22T17:58:19.912Z,96.70
2023-02-22T18:00:49.241Z,95.53
2023-02-22T18:03:21.755Z,91.95
2023-02-22T18:05:50.931Z,97.93
2023-02-22T18:08:18.492Z,100.25
2023-02-22T18:10:46.330Z,102.00
2023-02-22T18:13:17.067Z,107.30
2023-02-22T18:15:45.358Z,95.57
2023-02-22T18:18:12.738Z,84.27
2023-02-22T18:20:45.160Z,106.50
2023-02-22T18:23:17.705Z,105.50
2023-02-22T18:26:03.689Z,90.25
2023-02-22T18:28:36.277Z,110.47
2023-02-22T18:31:17.098Z,114.87
2023-02-22T18:33:54.729Z,104.72
2023-02-22T18:36:23.431Z,115.97
2023-02-22T18:38:53.618Z,97.45
2023-02-22T18:41:25.954Z,112.57
2023-02-22T18:43:57.992Z,94.97
2023-02-22T18:46:28.045Z,107.07
2023-02-22T18:48:56.868Z,108.13
2023-02-22T18:51:24.768Z,106.88
2023-02-22T18:54:02.166Z,105.68
2023-02-22T18:56:30.428Z,110.57
2023-02-22T18:59:02.439Z,114.00
2023-02-22T19:01:38.763Z,119.15
2023-02-22T19:04:10.059Z,108.05
2023-02-22T19:06:37.885Z,111.18
2023-02-22T19:09:09.018Z,119.30
2023-02-22T19:11:45.206Z,117.68
2023-02-22T19:14:15.087Z,111.05
2023-02-22T19:16:46.588Z,115.68
2023-02-22T19:19:18.761Z,119.53
2023-02-22T19:21:50.842Z,109.63
2023-02-22T19:24:19.351Z,112.05
2023-02-22T19:26:57.709Z,108.93
2023-02-22T19:29:24.873Z,122.60
2023-02-22T19:31:53.648Z,111.60
2023-02-22T19:34:23.977Z,96.03
2023-02-22T19:36:51.034Z,109.78
2023-02-22T19:41:54.190Z,107.72
2023-02-22T19:44:22.621Z,100.32
2023-02-22T19:46:49.964Z,110.47
2023-02-22T19:49:18.216Z,94.80
2023-02-22T19:51:45.779Z,101.88
2023-02-22T19:54:20.004Z,95.55
2023-02-22T19:56:58.558Z,84.93
2023-02-22T19:59:25.688Z,104.70
2023-02-22T20:01:55.149Z,97.38
2023-02-22T20:04:31.009Z,101.35
2023-02-22T20:06:58.264Z,97.03
2023-02-22T20:09:39.656Z,98.30
2023-02-22T20:12:08.049Z,86.37
2023-02-22T20:14:35.599Z,90.85
2023-02-22T20:17:05.044Z,89.80
2023-02-22T20:19:32.162Z,101.05
2023-02-22T20:22:05.116Z,98.07
2023-02-22T20:24:32.508Z,91.93
2023-02-22T20:27:00.097Z,93.95
2023-02-22T20:29:33.605Z,94.43
2023-02-22T20:32:03.161Z,103.20
2023-02-22T20:34:32.369Z,93.93
2023-02-22T20:37:00.964Z,93.93
2023-02-22T20:39:31.240Z,87.88
2023-02-22T20:42:03.814Z,97.43
2023-02-22T20:44:31.576Z,85.90
2023-02-22T20:46:58.776Z,99.78
2023-02-22T20:49:33.152Z,110.17
2023-02-22T21:46:21.035Z,95.25
2023-02-22T21:48:50.873Z,101.13
2023-02-22T21:51:25.552Z,105.47
2023-02-22T21:53:55.328Z,117.95
2023-02-22T21:56:24.462Z,115.00
2023-02-22T21:59:15.672Z,115.32
2023-02-22T22:01:49.731Z,107.72
2023-02-22T22:04:23.036Z,112.37
2023-02-22T22:06:52.042Z,121.90
2023-02-22T22:09:20.205Z,120.80
2023-02-22T22:11:49.603Z,126.75
2023-02-22T22:14:23.178Z,122.38
2023-02-22T22:16:52.607Z,141.17
2023-02-22T22:19:20.362Z,129.05
2023-02-22T22:21:48.774Z,119.90
2023-02-22T22:24:15.960Z,121.40
2023-02-22T22:26:44.021Z,138.25
2023-02-22T22:29:11.558Z,131.23
2023-02-22T22:31:39.014Z,125.07
2023-02-22T22:34:06.098Z,124.82
2023-02-22T22:36:34.433Z,134.65
2023-02-22T22:39:01.525Z,136.45
2023-02-22T22:41:28.526Z,130.03
2023-02-22T22:43:55.719Z,134.13
2023-02-22T22:46:22.749Z,133.73
2023-02-22T22:48:49.752Z,143.68
2023-02-22T22:51:20.820Z,136.23
2023-02-22T22:53:49.896Z,133.23
2023-02-22T22:56:20.167Z,121.63
2023-02-22T22:58:52.395Z,133.95
2023-02-22T23:01:26.976Z,127.10
2023-02-22T23:03:56.918Z,121.72
2023-02-22T23:06:42.028Z,126.27
2023-02-22T23:09:19.624Z,126.10
2023-02-22T23:11:53.554Z,132.20
2023-02-22T23:14:26.168Z,122.43
2023-02-22T23:17:04.233Z,140.38
2023-02-22T23:19:33.923Z,121.87
2023-02-22T23:22:05.246Z,125.18
2023-02-22T23:24:38.390Z,141.77
2023-02-22T23:27:10.855Z,127.22
2023-02-22T23:29:40.485Z,126.45
2023-02-22T23:32:08.976Z,121.07
2023-02-22T23:34:41.120Z,129.55
2023-02-22T23:37:10.404Z,144.48
2023-02-22T23:39:38.157Z,139.00
2023-02-22T23:42:05.096Z,136.63
2023-02-22T23:44:34.922Z,124.00
2023-02-22T23:47:02.676Z,125.03
2023-02-22T23:49:38.177Z,139.27
2023-02-22T23:52:06.519Z,140.30
2023-02-22T23:54:36.577Z,131.95
2023-02-22T23:57:04.838Z,138.63
2023-02-22T23:59:33.402Z,124.35
